createdAt,value
2022-10-04T00:00:11.822Z,11.21
2022-10-04T00:02:45.944Z,11.48
2022-10-04T00:05:16.625Z,11.69
2022-10-04T00:07:51.211Z,11.77
2022-10-04T00:10:29.803Z,11.05
2022-10-04T00:13:06.955Z,10.96
2022-10-04T00:15:39.191Z,10.53
2022-10-04T00:18:28.445Z,10.69
2022-10-04T00:20:58.027Z,11.00
2022-10-04T00:23:25.476Z,11.31
2022-10-04T00:25:55.264Z,11.59
2022-10-04T00:28:25.781Z,11.75
2022-10-04T00:31:14.664Z,11.38
2022-10-04T00:34:03.408Z,11.37
2022-10-04T00:36:36.573Z,11.49
2022-10-04T00:39:06.614Z,11.41
2022-10-04T00:41:49.616Z,11.52
2022-10-04T00:44:33.694Z,11.64
2022-10-04T00:47:04.057Z,11.52
2022-10-04T00:49:39.347Z,11.21
2022-10-04T00:52:23.247Z,11.40
2022-10-04T00:54:53.594Z,11.42
2022-10-04T00:57:24.732Z,11.49
2022-10-04T00:59:54.298Z,11.59
2022-10-04T01:02:45.777Z,11.41
2022-10-04T01:05:30.071Z,11.48
2022-10-04T01:08:05.050Z,11.97
2022-10-04T01:10:36.759Z,11.50
2022-10-04T01:13:20.392Z,11.43
2022-10-04T01:15:55.277Z,11.68
2022-10-04T01:18:22.855Z,11.62
2022-10-04T01:20:52.816Z,11.63
2022-10-04T01:23:45.695Z,11.36
2022-10-04T01:26:32.314Z,11.49
2022-10-04T01:29:10.225Z,11.76
2022-10-04T01:31:40.870Z,11.63
2022-10-04T01:34:09.312Z,11.90
2022-10-04T01:36:37.096Z,11.41
2022-10-04T01:39:05.360Z,11.38
2022-10-04T01:41:53.158Z,11.38
2022-10-04T01:44:48.878Z,11.76
2022-10-04T01:47:22.958Z,11.20
2022-10-04T01:49:51.937Z,11.39
2022-10-04T01:52:24.472Z,11.39
2022-10-04T01:55:00.346Z,11.59
2022-10-04T01:57:34.319Z,11.38
2022-10-04T02:00:05.043Z,11.57
2022-10-04T02:02:54.868Z,11.79
2022-10-04T02:05:50.513Z,11.77
2022-10-04T02:08:24.305Z,11.91
2022-10-04T02:10:52.478Z,12.15
2022-10-04T02:13:21.534Z,12.10
2022-10-04T02:15:49.774Z,11.82
2022-10-04T02:18:20.611Z,11.64
2022-10-04T02:20:49.643Z,12.03
2022-10-04T02:23:18.849Z,11.91
2022-10-04T02:25:46.399Z,11.93
2022-10-04T02:28:15.491Z,11.75
2022-10-04T02:31:06.451Z,11.70
2022-10-04T02:33:34.496Z,11.63
2022-10-04T02:36:02.159Z,11.67
2022-10-04T02:38:35.172Z,11.52
2022-10-04T02:41:12.631Z,11.31
2022-10-04T02:43:45.382Z,11.61
2022-10-04T02:46:36.518Z,11.75
2022-10-04T02:49:18.221Z,11.50
2022-10-04T02:51:51.500Z,11.69
2022-10-04T02:54:27.958Z,11.72
2022-10-04T02:56:58.815Z,11.61
2022-10-04T02:59:35.474Z,11.43
2022-10-04T03:02:29.445Z,11.52
2022-10-04T03:05:05.989Z,11.52
2022-10-04T03:07:35.181Z,11.47
2022-10-04T03:10:03.702Z,11.54
2022-10-04T03:12:31.799Z,11.60
2022-10-04T03:14:59.749Z,11.62
2022-10-04T03:17:27.169Z,11.40
2022-10-04T03:19:54.499Z,11.74
2022-10-04T03:22:22.980Z,11.47
2022-10-04T03:24:53.555Z,11.48
2022-10-04T03:27:25.047Z,11.37
2022-10-04T03:29:58.899Z,11.47
2022-10-04T03:32:30.701Z,11.41
2022-10-04T03:35:00.605Z,11.62
2022-10-04T03:37:29.822Z,11.28
2022-10-04T03:39:57.784Z,11.35
2022-10-04T03:42:28.064Z,11.52
2022-10-04T03:45:02.937Z,11.66
2022-10-04T03:47:33.786Z,11.38
2022-10-04T03:50:13.791Z,11.67
2022-10-04T03:52:46.445Z,11.28
2022-10-04T03:55:15.319Z,11.40
2022-10-04T03:57:43.202Z,11.44
2022-10-04T04:00:15.370Z,11.40
2022-10-04T04:02:48.076Z,11.40
2022-10-04T04:05:26.445Z,11.35
2022-10-04T04:08:00.794Z,11.24
2022-10-04T04:10:30.363Z,11.50
2022-10-04T04:13:35.425Z,11.37
2022-10-04T04:16:02.995Z,11.48
2022-10-04T04:18:33.728Z,11.34
2022-10-04T04:21:03.058Z,11.32
2022-10-04T04:23:41.944Z,11.03
2022-10-04T04:26:44.089Z,11.45
2022-10-04T04:29:28.415Z,11.16
2022-10-04T04:32:02.485Z,11.17
2022-10-04T04:34:35.606Z,11.33
2022-10-04T04:37:05.084Z,11.32
2022-10-04T04:39:40.905Z,11.26
2022-10-04T04:42:10.905Z,11.46
2022-10-04T04:44:46.063Z,11.34
2022-10-04T04:47:20.390Z,11.53
2022-10-04T04:49:47.950Z,11.32
2022-10-04T04:52:16.878Z,11.30
2022-10-04T04:54:47.119Z,11.41
2022-10-04T04:57:16.994Z,11.37
2022-10-04T04:59:46.271Z,11.25
2022-10-04T05:02:37.596Z,11.22
2022-10-04T05:05:24.795Z,11.15
2022-10-04T05:08:10.833Z,11.21
2022-10-04T05:10:41.020Z,11.30
2022-10-04T05:13:10.015Z,11.35
2022-10-04T05:15:40.235Z,11.39
2022-10-04T05:18:34.233Z,11.35
2022-10-04T05:21:13.572Z,11.52
2022-10-04T05:23:40.967Z,11.58
2022-10-04T05:26:13.170Z,11.45
2022-10-04T05:28:40.906Z,11.43
2022-10-04T05:31:17.190Z,11.61
2022-10-04T05:34:02.850Z,11.97
2022-10-04T05:36:48.891Z,11.92
2022-10-04T05:39:22.274Z,12.26
2022-10-04T05:42:23.530Z,11.98
2022-10-04T05:44:53.411Z,12.02
2022-10-04T05:47:24.141Z,12.22
2022-10-04T05:49:54.422Z,12.27
2022-10-04T05:52:30.610Z,12.23
2022-10-04T05:55:16.494Z,12.44
2022-10-04T05:58:21.381Z,12.43
2022-10-04T06:01:11.003Z,12.65
2022-10-04T06:03:57.090Z,12.72
2022-10-04T06:06:57.351Z,12.77
2022-10-04T06:09:44.843Z,13.52
2022-10-04T06:12:44.424Z,13.74
2022-10-04T06:15:41.404Z,14.53
2022-10-04T06:18:30.535Z,14.15
2022-10-04T06:21:01.140Z,14.43
2022-10-04T06:23:30.373Z,14.35
2022-10-04T06:26:05.243Z,14.54
2022-10-04T06:28:46.939Z,14.49
2022-10-04T06:31:33.284Z,14.30
2022-10-04T06:34:03.295Z,14.29
2022-10-04T06:36:37.122Z,14.16
2022-10-04T06:39:23.358Z,14.24
2022-10-04T06:42:16.903Z,14.33
2022-10-04T06:45:00.725Z,14.08
2022-10-04T06:47:43.883Z,14.13
2022-10-04T06:50:28.958Z,13.98
2022-10-04T06:53:15.284Z,14.21
2022-10-04T06:55:54.478Z,14.38
2022-10-04T06:58:38.126Z,14.73
2022-10-04T07:01:24.673Z,14.43
2022-10-04T07:03:57.526Z,14.58
2022-10-04T07:06:29.396Z,14.60
2022-10-04T07:09:02.460Z,14.51
2022-10-04T07:11:36.860Z,14.00
2022-10-04T07:14:13.741Z,14.30
2022-10-04T07:16:48.436Z,14.64
2022-10-04T07:19:19.104Z,14.90
2022-10-04T07:22:05.679Z,14.46
2022-10-04T07:24:42.020Z,14.52
2022-10-04T07:27:14.329Z,14.60
2022-10-04T07:29:45.760Z,14.70
2022-10-04T07:32:17.911Z,14.63
2022-10-04T07:35:08.591Z,15.07
2022-10-04T07:37:47.363Z,14.62
2022-10-04T07:41:03.576Z,15.09
2022-10-04T07:43:58.431Z,15.00
2022-10-04T07:46:47.634Z,15.07
2022-10-04T07:49:17.307Z,14.60
2022-10-04T07:52:15.399Z,14.65
2022-10-04T07:55:16.707Z,14.71
2022-10-04T07:57:54.616Z,15.05
2022-10-04T08:00:32.401Z,14.95
2022-10-04T08:03:19.826Z,14.65
2022-10-04T08:05:59.393Z,15.58
2022-10-04T08:08:58.170Z,15.77
2022-10-04T08:11:43.367Z,15.91
2022-10-04T08:14:20.975Z,16.31
2022-10-04T08:17:05.834Z,16.72
2022-10-04T08:19:38.760Z,16.65
2022-10-04T08:22:19.889Z,16.07
2022-10-04T08:25:03.744Z,15.88
2022-10-04T08:27:35.550Z,16.67
2022-10-04T08:30:11.150Z,16.77
2022-10-04T08:32:47.601Z,17.10
2022-10-04T08:35:36.117Z,16.88
2022-10-04T08:38:42.374Z,16.22
2022-10-04T08:41:47.691Z,16.42
2022-10-04T08:44:43.075Z,16.22
2022-10-04T08:47:39.098Z,16.87
2022-10-04T08:50:32.842Z,16.35
2022-10-04T08:53:43.644Z,16.96
2022-10-04T08:56:35.762Z,16.93
2022-10-04T08:59:17.104Z,17.78
2022-10-04T09:02:22.129Z,17.89
2022-10-04T09:04:58.487Z,18.22
2022-10-04T09:07:57.984Z,17.18
2022-10-04T09:10:37.610Z,17.24
2022-10-04T09:13:30.979Z,17.85
2022-10-04T09:16:18.610Z,16.96
2022-10-04T09:19:11.751Z,16.73
2022-10-04T09:21:46.216Z,15.87
2022-10-04T09:24:34.746Z,15.48
2022-10-04T09:27:26.825Z,16.05
2022-10-04T09:30:15.583Z,17.03
2022-10-04T09:32:59.480Z,17.29
2022-10-04T09:35:41.160Z,17.44
2022-10-04T09:38:42.690Z,17.19
2022-10-04T09:42:04.659Z,17.52
2022-10-04T09:44:54.693Z,17.43
2022-10-04T09:47:38.434Z,17.54
2022-10-04T09:50:26.706Z,17.39
2022-10-04T09:53:28.213Z,16.79
2022-10-04T09:56:14.026Z,16.77
2022-10-04T09:58:51.598Z,16.92
2022-10-04T10:01:33.615Z,17.34
2022-10-04T10:04:13.448Z,17.36
2022-10-04T10:07:06.839Z,17.63
2022-10-04T10:10:10.362Z,17.71
2022-10-04T10:13:22.708Z,16.75
2022-10-04T10:16:02.899Z,16.20
2022-10-04T10:18:48.503Z,16.62
2022-10-04T10:21:42.583Z,15.63
2022-10-04T10:24:48.050Z,15.96
2022-10-04T10:27:30.035Z,15.96
2022-10-04T10:29:57.271Z,16.35
2022-10-04T10:32:46.492Z,16.38
2022-10-04T10:35:25.455Z,16.43
2022-10-04T10:38:14.920Z,15.96
2022-10-04T10:41:07.173Z,15.90
2022-10-04T10:43:57.503Z,16.16
2022-10-04T10:46:52.771Z,16.52
2022-10-04T10:49:36.359Z,15.81
2022-10-04T10:52:28.528Z,16.26
2022-10-04T10:55:29.267Z,15.77
2022-10-04T10:58:27.664Z,16.16
2022-10-04T11:01:26.465Z,15.77
2022-10-04T11:04:18.679Z,16.32
2022-10-04T11:07:16.436Z,15.77
2022-10-04T11:09:51.454Z,17.20
2022-10-04T11:12:29.617Z,17.16
2022-10-04T11:15:34.949Z,17.62
2022-10-04T11:18:21.513Z,17.50
2022-10-04T11:21:25.796Z,18.36
2022-10-04T11:24:50.832Z,18.41
2022-10-04T11:27:28.898Z,19.29
2022-10-04T11:30:09.032Z,18.93
2022-10-04T11:32:48.359Z,18.32
2022-10-04T11:35:15.817Z,18.40
2022-10-04T11:37:46.410Z,18.86
2022-10-04T11:40:17.964Z,18.67
2022-10-04T11:42:56.311Z,19.32
2022-10-04T11:46:14.142Z,19.65
2022-10-04T11:48:53.328Z,19.24
2022-10-04T11:51:35.519Z,18.90
2022-10-04T11:54:37.578Z,19.22
2022-10-04T11:57:25.614Z,18.92
2022-10-04T12:00:05.111Z,17.99
2022-10-04T12:03:02.733Z,18.04
2022-10-04T12:05:40.775Z,17.55
2022-10-04T12:08:16.811Z,17.65
2022-10-04T12:11:08.662Z,17.91
2022-10-04T12:13:54.451Z,17.96
2022-10-04T12:16:34.184Z,18.38
2022-10-04T12:19:31.779Z,18.17
2022-10-04T12:22:14.733Z,18.22
2022-10-04T12:25:09.291Z,17.80
2022-10-04T12:28:35.403Z,17.33
2022-10-04T12:31:28.677Z,17.66
2022-10-04T12:34:17.554Z,17.42
2022-10-04T12:37:13.848Z,17.35
2022-10-04T12:40:00.153Z,17.74
2022-10-04T12:42:32.248Z,17.30
2022-10-04T12:45:21.964Z,17.34
2022-10-04T12:47:55.339Z,17.25
2022-10-04T12:50:34.879Z,17.17
2022-10-04T12:53:41.277Z,17.81
2022-10-04T12:56:32.044Z,17.81
2022-10-04T12:59:16.353Z,17.73
2022-10-04T13:02:15.029Z,17.71
2022-10-04T13:04:48.834Z,18.10
2022-10-04T13:08:04.699Z,17.77
2022-10-04T13:10:54.470Z,17.16
2022-10-04T13:13:31.367Z,16.79
2022-10-04T13:19:12.521Z,17.71
2022-10-04T13:21:57.059Z,17.71
2022-10-04T13:24:55.547Z,17.58
2022-10-04T13:27:30.416Z,16.80
2022-10-04T13:30:16.237Z,17.14
2022-10-04T13:33:10.334Z,17.63
2022-10-04T13:35:49.959Z,17.50
2022-10-04T13:38:31.115Z,17.34
2022-10-04T13:41:31.076Z,17.98
2022-10-04T13:44:35.463Z,17.78
2022-10-04T13:47:05.755Z,17.95
2022-10-04T13:49:57.464Z,18.22
2022-10-04T13:53:06.306Z,17.93
2022-10-04T13:56:13.339Z,18.35
2022-10-04T13:58:48.386Z,17.80
2022-10-04T14:01:18.915Z,17.82
2022-10-04T14:04:12.554Z,17.90
2022-10-04T14:07:01.361Z,17.92
2022-10-04T14:09:59.883Z,17.70
2022-10-04T14:12:36.099Z,17.89
2022-10-04T14:15:11.258Z,16.74
2022-10-04T14:18:00.060Z,16.86
2022-10-04T14:20:33.536Z,16.94
2022-10-04T14:23:12.682Z,17.27
2022-10-04T14:25:55.448Z,17.38
2022-10-04T14:28:38.253Z,16.76
2022-10-04T14:31:27.739Z,17.31
2022-10-04T14:34:25.687Z,17.71
2022-10-04T14:37:25.459Z,17.01
2022-10-04T14:40:17.634Z,17.06
2022-10-04T14:43:30.883Z,16.99
2022-10-04T14:46:25.420Z,17.15
2022-10-04T14:48:59.027Z,17.08
2022-10-04T14:51:35.440Z,16.84
2022-10-04T14:54:15.948Z,17.19
2022-10-04T14:56:52.304Z,16.76
2022-10-04T14:59:46.558Z,16.97
2022-10-04T15:02:33.771Z,17.03
2022-10-04T15:05:13.968Z,17.01
2022-10-04T15:07:47.025Z,16.75
2022-10-04T15:10:25.212Z,17.11
2022-10-04T15:13:11.487Z,16.55
2022-10-04T15:16:14.129Z,16.04
2022-10-04T15:18:41.600Z,16.23
2022-10-04T15:21:47.655Z,16.52
2022-10-04T15:24:25.634Z,16.59
2022-10-04T15:27:30.603Z,16.49
2022-10-04T15:30:17.932Z,16.68
2022-10-04T15:32:48.262Z,15.90
2022-10-04T15:35:15.467Z,15.65
2022-10-04T15:37:53.278Z,16.14
2022-10-04T15:40:32.918Z,16.87
2022-10-04T15:43:15.385Z,16.77
2022-10-04T15:46:02.219Z,17.02
2022-10-04T15:48:52.488Z,16.80
2022-10-04T15:51:48.752Z,17.13
2022-10-04T15:54:22.171Z,16.88
2022-10-04T15:56:55.793Z,16.83
2022-10-04T15:59:41.926Z,16.91
2022-10-04T16:02:28.675Z,16.56
2022-10-04T16:05:00.404Z,16.73
2022-10-04T16:07:35.708Z,16.29
2022-10-04T16:10:19.074Z,16.59
2022-10-04T16:13:06.991Z,16.55
2022-10-04T16:15:39.823Z,16.38
2022-10-04T16:18:26.551Z,16.33
2022-10-04T16:21:19.104Z,16.49
2022-10-04T16:23:46.527Z,16.19
2022-10-04T16:26:34.038Z,16.20
2022-10-04T16:29:04.704Z,15.81
2022-10-04T16:31:44.567Z,15.92
2022-10-04T16:34:17.451Z,15.58
2022-10-04T16:36:52.613Z,15.46
2022-10-04T16:39:59.241Z,15.44
2022-10-04T16:42:41.854Z,15.50
2022-10-04T16:45:09.327Z,15.69
2022-10-04T16:47:59.689Z,15.77
2022-10-04T16:50:48.853Z,15.68
2022-10-04T16:53:48.558Z,15.19
2022-10-04T16:56:23.706Z,15.29
2022-10-04T16:59:01.558Z,15.13
2022-10-04T17:01:41.617Z,14.53
2022-10-04T17:04:30.949Z,14.87
2022-10-04T17:07:08.640Z,14.81
2022-10-04T17:10:04.376Z,14.86
2022-10-04T17:12:50.563Z,15.13
2022-10-04T17:15:31.025Z,15.07
2022-10-04T17:18:19.643Z,14.75
2022-10-04T17:20:56.810Z,14.70
2022-10-04T17:23:54.479Z,14.49
2022-10-04T17:26:41.866Z,14.63
2022-10-04T17:29:21.818Z,14.62
2022-10-04T17:31:57.367Z,14.31
2022-10-04T17:34:43.516Z,14.22
2022-10-04T17:37:23.386Z,13.71
2022-10-04T17:40:37.899Z,13.48
2022-10-04T17:43:22.759Z,13.73
2022-10-04T17:46:11.762Z,13.63
2022-10-04T17:49:05.332Z,13.70
2022-10-04T17:52:07.643Z,13.48
2022-10-04T17:54:57.159Z,13.88
2022-10-04T17:57:25.320Z,13.62
2022-10-04T17:59:59.594Z,13.62
2022-10-04T18:02:37.933Z,13.68
2022-10-04T18:05:18.005Z,13.60
2022-10-04T18:07:52.491Z,13.67
2022-10-04T18:10:38.923Z,13.60
2022-10-04T18:13:14.792Z,13.69
2022-10-04T18:15:50.032Z,13.56
2022-10-04T18:18:21.769Z,13.50
2022-10-04T18:20:52.320Z,13.16
2022-10-04T18:23:28.293Z,13.16
2022-10-04T18:26:12.056Z,13.24
2022-10-04T18:28:39.531Z,13.27
2022-10-04T18:31:21.215Z,13.29
2022-10-04T18:33:51.173Z,13.14
2022-10-04T18:36:27.490Z,13.20
2022-10-04T18:39:13.784Z,12.98
2022-10-04T18:41:51.734Z,13.26
2022-10-04T18:44:29.806Z,13.16
2022-10-04T18:46:59.888Z,13.09
2022-10-04T18:49:33.386Z,13.14
2022-10-04T18:52:25.192Z,13.07
2022-10-04T18:55:34.300Z,12.91
2022-10-04T18:58:54.470Z,12.93
2022-10-04T19:02:07.515Z,12.83
2022-10-04T19:04:41.344Z,12.86
2022-10-04T19:07:37.192Z,12.62
2022-10-04T19:10:57.326Z,12.49
2022-10-04T19:13:44.009Z,12.56
2022-10-04T19:16:16.638Z,12.59
2022-10-04T19:18:49.952Z,12.63
2022-10-04T19:21:48.041Z,12.61
2022-10-04T19:24:49.352Z,12.52
2022-10-04T19:27:38.694Z,12.50
2022-10-04T19:30:40.533Z,12.51
2022-10-04T19:33:30.815Z,12.28
2022-10-04T19:36:01.477Z,12.30
2022-10-04T19:38:31.384Z,12.18
2022-10-04T19:41:23.783Z,12.07
2022-10-04T19:43:59.677Z,12.23
2022-10-04T19:46:40.243Z,12.23
2022-10-04T19:49:18.446Z,12.16
2022-10-04T19:51:51.121Z,11.96
2022-10-04T19:54:32.025Z,11.94
2022-10-04T19:57:01.952Z,11.85
2022-10-04T19:59:42.999Z,11.79
2022-10-04T20:02:11.640Z,11.80
2022-10-04T20:04:42.233Z,12.13
2022-10-04T20:07:25.768Z,12.13
2022-10-04T20:10:12.658Z,11.72
2022-10-04T20:12:41.469Z,11.67
2022-10-04T20:15:25.235Z,11.79
2022-10-04T20:17:55.447Z,11.59
2022-10-04T20:20:38.726Z,11.74
2022-10-04T20:23:10.002Z,11.88
2022-10-04T20:25:43.801Z,11.79
2022-10-04T20:28:26.284Z,11.91
2022-10-04T20:30:58.592Z,11.92
2022-10-04T20:33:36.847Z,11.89
2022-10-04T20:36:19.935Z,11.63
2022-10-04T20:38:59.681Z,11.34
2022-10-04T20:41:50.247Z,11.17
2022-10-04T20:44:55.439Z,11.25
2022-10-04T20:47:41.760Z,11.29
2022-10-04T20:50:36.688Z,11.49
2022-10-04T20:53:12.300Z,11.27
2022-10-04T20:55:40.342Z,11.50
2022-10-04T20:58:30.356Z,11.20
2022-10-04T21:00:59.986Z,11.37
2022-10-04T21:03:27.702Z,11.39
2022-10-04T21:06:03.941Z,11.49
2022-10-04T21:08:31.582Z,11.49
2022-10-04T21:11:22.091Z,11.39
2022-10-04T21:13:58.209Z,11.26
2022-10-04T21:16:42.076Z,11.09
2022-10-04T21:19:35.817Z,10.81
2022-10-04T21:22:04.597Z,11.21
2022-10-04T21:24:48.852Z,11.13
2022-10-04T21:27:30.691Z,10.90
2022-10-04T21:29:59.342Z,10.91
2022-10-04T21:32:27.453Z,11.03
2022-10-04T21:34:54.999Z,11.16
2022-10-04T21:37:22.808Z,11.11
2022-10-04T21:39:50.097Z,11.16
2022-10-04T21:42:17.952Z,11.18
2022-10-04T21:44:45.517Z,10.93
2022-10-04T21:47:12.846Z,11.03
2022-10-04T21:49:40.202Z,11.06
2022-10-04T21:52:08.089Z,11.22
2022-10-04T21:54:35.530Z,11.03
2022-10-04T21:57:02.836Z,11.12
2022-10-04T21:59:30.408Z,11.04
2022-10-04T22:01:57.739Z,11.22
2022-10-04T22:04:25.405Z,11.36
2022-10-04T22:06:52.724Z,11.35
2022-10-04T22:09:20.125Z,11.28
2022-10-04T22:11:47.705Z,11.16
2022-10-04T22:14:14.992Z,11.29
2022-10-04T22:16:43.471Z,11.03
2022-10-04T22:19:11.465Z,11.15
2022-10-04T22:21:38.806Z,11.00
2022-10-04T22:24:13.751Z,10.97
2022-10-04T22:26:41.292Z,10.91
2022-10-04T22:29:13.246Z,10.51
2022-10-04T22:31:44.204Z,10.91
2022-10-04T22:34:17.230Z,11.21
2022-10-04T22:36:46.015Z,10.56
2022-10-04T22:39:18.089Z,10.68
2022-10-04T22:41:48.384Z,11.04
2022-10-04T22:44:21.200Z,10.84
2022-10-04T22:46:52.134Z,10.90
2022-10-04T22:49:27.407Z,10.62
2022-10-04T22:51:56.514Z,10.71
2022-10-04T22:54:31.234Z,10.65
2022-10-04T22:56:59.166Z,10.44
2022-10-04T22:59:35.895Z,10.61
2022-10-04T23:02:07.654Z,10.74
2022-10-04T23:04:35.029Z,10.76
2022-10-04T23:07:02.657Z,10.76
2022-10-04T23:09:29.977Z,10.98
2022-10-04T23:11:57.399Z,10.94
2022-10-04T23:14:24.981Z,10.76
2022-10-04T23:16:52.295Z,10.60
2022-10-04T23:19:20.310Z,10.79
2022-10-04T23:21:49.521Z,10.60
2022-10-04T23:24:19.439Z,10.73
2022-10-04T23:26:49.419Z,10.80
2022-10-04T23:29:22.001Z,10.82
2022-10-04T23:31:50.171Z,10.84
2022-10-04T23:34:28.084Z,10.33
2022-10-04T23:36:55.442Z,10.58
2022-10-04T23:39:27.249Z,10.41
2022-10-04T23:41:55.370Z,10.99
2022-10-04T23:44:24.681Z,11.01
2022-10-04T23:46:52.391Z,10.64
2022-10-04T23:49:21.310Z,10.24
2022-10-04T23:51:51.162Z,10.21
2022-10-04T23:54:18.667Z,10.50
2022-10-04T23:56:47.031Z,10.72
2022-10-04T23:59:17.489Z,10.11
